sensor_id;sensor_type;location;lat;lon;timestamp;P1;durP1;ratioP1;P2;durP2;ratioP2
32633;SDS011;19043;51.012;5.648;2023-02-13T00:00:11;75.03;;;48.58;;
32633;SDS011;19043;51.012;5.648;2023-02-13T00:02:38;89.65;;;53.80;;
32633;SDS011;19043;51.012;5.648;2023-02-13T00:05:03;79.38;;;51.95;;
32633;SDS011;19043;51.012;5.648;2023-02-13T00:07:29;78.60;;;47.67;;
32633;SDS011;19043;51.012;5.648;2023-02-13T00:09:54;77.78;;;49.40;;
32633;SDS011;19043;51.012;5.648;2023-02-13T00:12:20;71.32;;;47.53;;
32633;SDS011;19043;51.012;5.648;2023-02-13T00:14:45;81.03;;;50.70;;
32633;SDS011;19043;51.012;5.648;2023-02-13T00:17:10;69.90;;;45.65;;
32633;SDS011;19043;51.012;5.648;2023-02-13T00:19:36;72.65;;;46.85;;
32633;SDS011;19043;51.012;5.648;2023-02-13T00:22:01;67.25;;;46.20;;
32633;SDS011;19043;51.012;5.648;2023-02-13T00:24:27;76.00;;;46.28;;
32633;SDS011;19043;51.012;5.648;2023-02-13T00:26:52;71.90;;;45.42;;
32633;SDS011;19043;51.012;5.648;2023-02-13T00:29:18;93.03;;;52.85;;
32633;SDS011;19043;51.012;5.648;2023-02-13T00:31:44;86.72;;;49.22;;
32633;SDS011;19043;51.012;5.648;2023-02-13T00:34:09;70.18;;;48.05;;
32633;SDS011;19043;51.012;5.648;2023-02-13T00:36:34;78.25;;;47.65;;
32633;SDS011;19043;51.012;5.648;2023-02-13T00:39:00;78.15;;;50.60;;
32633;SDS011;19043;51.012;5.648;2023-02-13T00:41:25;88.70;;;53.88;;
32633;SDS011;19043;51.012;5.648;2023-02-13T00:43:51;84.07;;;51.05;;
32633;SDS011;19043;51.012;5.648;2023-02-13T00:46:18;66.55;;;46.30;;
32633;SDS011;19043;51.012;5.648;2023-02-13T00:48:43;77.63;;;46.47;;
32633;SDS011;19043;51.012;5.648;2023-02-13T00:51:09;79.70;;;47.35;;
32633;SDS011;19043;51.012;5.648;2023-02-13T00:53:35;73.30;;;46.20;;
32633;SDS011;19043;51.012;5.648;2023-02-13T00:56:01;64.80;;;45.97;;
32633;SDS011;19043;51.012;5.648;2023-02-13T00:58:27;71.43;;;45.33;;
32633;SDS011;19043;51.012;5.648;2023-02-13T01:00:53;65.60;;;41.75;;
32633;SDS011;19043;51.012;5.648;2023-02-13T01:03:19;66.45;;;43.08;;
32633;SDS011;19043;51.012;5.648;2023-02-13T01:05:45;65.75;;;43.28;;
32633;SDS011;19043;51.012;5.648;2023-02-13T01:08:11;63.65;;;43.00;;
32633;SDS011;19043;51.012;5.648;2023-02-13T01:10:37;79.68;;;50.33;;
32633;SDS011;19043;51.012;5.648;2023-02-13T01:13:03;77.18;;;47.83;;
32633;SDS011;19043;51.012;5.648;2023-02-13T01:15:29;71.40;;;44.42;;
32633;SDS011;19043;51.012;5.648;2023-02-13T01:17:54;69.13;;;43.92;;
32633;SDS011;19043;51.012;5.648;2023-02-13T01:20:21;71.30;;;45.97;;
32633;SDS011;19043;51.012;5.648;2023-02-13T01:22:47;71.05;;;45.35;;
32633;SDS011;19043;51.012;5.648;2023-02-13T01:25:13;82.35;;;45.17;;
32633;SDS011;19043;51.012;5.648;2023-02-13T01:27:38;72.13;;;46.58;;
32633;SDS011;19043;51.012;5.648;2023-02-13T01:30:04;75.93;;;47.55;;
32633;SDS011;19043;51.012;5.648;2023-02-13T01:32:35;76.25;;;47.28;;
32633;SDS011;19043;51.012;5.648;2023-02-13T01:35:01;69.10;;;43.05;;
32633;SDS011;19043;51.012;5.648;2023-02-13T01:37:27;63.88;;;41.05;;
32633;SDS011;19043;51.012;5.648;2023-02-13T01:39:52;65.28;;;42.00;;
32633;SDS011;19043;51.012;5.648;2023-02-13T01:42:23;146.43;;;33.42;;
32633;SDS011;19043;51.012;5.648;2023-02-13T01:44:54;44.95;;;28.17;;
32633;SDS011;19043;51.012;5.648;2023-02-13T01:47:23;52.70;;;33.63;;
32633;SDS011;19043;51.012;5.648;2023-02-13T01:49:54;59.53;;;33.72;;
32633;SDS011;19043;51.012;5.648;2023-02-13T01:52:34;60.85;;;36.33;;
32633;SDS011;19043;51.012;5.648;2023-02-13T01:55:03;53.85;;;37.33;;
32633;SDS011;19043;51.012;5.648;2023-02-13T01:57:29;65.65;;;40.53;;
32633;SDS011;19043;51.012;5.648;2023-02-13T02:00:01;49.22;;;31.67;;
32633;SDS011;19043;51.012;5.648;2023-02-13T02:02:42;58.53;;;34.72;;
32633;SDS011;19043;51.012;5.648;2023-02-13T02:05:10;42.53;;;30.88;;
32633;SDS011;19043;51.012;5.648;2023-02-13T02:07:36;59.72;;;33.97;;
32633;SDS011;19043;51.012;5.648;2023-02-13T02:10:04;53.90;;;34.58;;
32633;SDS011;19043;51.012;5.648;2023-02-13T02:15:17;59.03;;;37.70;;
32633;SDS011;19043;51.012;5.648;2023-02-13T02:17:43;53.67;;;36.05;;
32633;SDS011;19043;51.012;5.648;2023-02-13T02:23:13;65.82;;;40.90;;
32633;SDS011;19043;51.012;5.648;2023-02-13T02:42:58;58.17;;;41.15;;
32633;SDS011;19043;51.012;5.648;2023-02-13T02:46:00;71.88;;;44.08;;
32633;SDS011;19043;51.012;5.648;2023-02-13T02:48:57;61.97;;;38.05;;
32633;SDS011;19043;51.012;5.648;2023-02-13T02:51:56;69.40;;;38.75;;
32633;SDS011;19043;51.012;5.648;2023-02-13T02:57:15;85.30;;;46.70;;
32633;SDS011;19043;51.012;5.648;2023-02-13T02:59:45;85.97;;;44.20;;
32633;SDS011;19043;51.012;5.648;2023-02-13T03:02:31;70.93;;;42.30;;
32633;SDS011;19043;51.012;5.648;2023-02-13T03:05:20;76.15;;;45.80;;
32633;SDS011;19043;51.012;5.648;2023-02-13T03:08:07;82.22;;;47.17;;
32633;SDS011;19043;51.012;5.648;2023-02-13T03:10:33;67.00;;;41.22;;
32633;SDS011;19043;51.012;5.648;2023-02-13T03:13:36;57.85;;;38.40;;
32633;SDS011;19043;51.012;5.648;2023-02-13T03:16:03;65.28;;;39.47;;
32633;SDS011;19043;51.012;5.648;2023-02-13T03:18:52;68.22;;;39.03;;
32633;SDS011;19043;51.012;5.648;2023-02-13T03:24:42;65.85;;;39.78;;
32633;SDS011;19043;51.012;5.648;2023-02-13T03:27:49;61.13;;;39.38;;
32633;SDS011;19043;51.012;5.648;2023-02-13T03:33:23;75.63;;;44.63;;
32633;SDS011;19043;51.012;5.648;2023-02-13T03:38:58;64.38;;;38.45;;
32633;SDS011;19043;51.012;5.648;2023-02-13T03:41:39;79.40;;;40.08;;
32633;SDS011;19043;51.012;5.648;2023-02-13T03:46:50;69.85;;;41.88;;
32633;SDS011;19043;51.012;5.648;2023-02-13T03:49:21;70.07;;;41.40;;
32633;SDS011;19043;51.012;5.648;2023-02-13T03:52:28;75.47;;;40.38;;
32633;SDS011;19043;51.012;5.648;2023-02-13T03:55:18;65.10;;;39.67;;
32633;SDS011;19043;51.012;5.648;2023-02-13T03:58:23;84.10;;;44.67;;
32633;SDS011;19043;51.012;5.648;2023-02-13T04:01:11;77.30;;;42.85;;
32633;SDS011;19043;51.012;5.648;2023-02-13T04:06:51;72.43;;;43.17;;
32633;SDS011;19043;51.012;5.648;2023-02-13T04:09:20;83.05;;;43.75;;
32633;SDS011;19043;51.012;5.648;2023-02-13T04:14:38;85.57;;;45.35;;
32633;SDS011;19043;51.012;5.648;2023-02-13T04:17:32;82.20;;;48.28;;
32633;SDS011;19043;51.012;5.648;2023-02-13T04:20:00;78.97;;;47.17;;
32633;SDS011;19043;51.012;5.648;2023-02-13T04:22:25;85.63;;;49.38;;
32633;SDS011;19043;51.012;5.648;2023-02-13T04:24:51;82.78;;;47.20;;
32633;SDS011;19043;51.012;5.648;2023-02-13T04:27:16;79.07;;;44.92;;
32633;SDS011;19043;51.012;5.648;2023-02-13T04:29:42;77.22;;;46.67;;
32633;SDS011;19043;51.012;5.648;2023-02-13T04:32:10;72.47;;;43.60;;
32633;SDS011;19043;51.012;5.648;2023-02-13T04:34:36;77.10;;;44.42;;
32633;SDS011;19043;51.012;5.648;2023-02-13T04:37:02;76.63;;;44.53;;
32633;SDS011;19043;51.012;5.648;2023-02-13T04:39:27;81.68;;;47.85;;
32633;SDS011;19043;51.012;5.648;2023-02-13T04:41:52;95.85;;;51.10;;
32633;SDS011;19043;51.012;5.648;2023-02-13T04:44:18;142.95;;;56.28;;
32633;SDS011;19043;51.012;5.648;2023-02-13T04:46:43;158.05;;;59.15;;
32633;SDS011;19043;51.012;5.648;2023-02-13T04:49:09;134.63;;;57.33;;
32633;SDS011;19043;51.012;5.648;2023-02-13T04:51:35;113.32;;;55.72;;
32633;SDS011;19043;51.012;5.648;2023-02-13T04:54:00;113.40;;;55.42;;
32633;SDS011;19043;51.012;5.648;2023-02-13T04:56:25;172.00;;;62.60;;
32633;SDS011;19043;51.012;5.648;2023-02-13T04:58:51;102.72;;;53.60;;
32633;SDS011;19043;51.012;5.648;2023-02-13T05:01:16;101.70;;;52.63;;
32633;SDS011;19043;51.012;5.648;2023-02-13T05:03:42;91.78;;;50.20;;
32633;SDS011;19043;51.012;5.648;2023-02-13T05:06:07;110.72;;;57.70;;
32633;SDS011;19043;51.012;5.648;2023-02-13T05:08:33;89.53;;;50.75;;
32633;SDS011;19043;51.012;5.648;2023-02-13T05:10:58;96.95;;;52.58;;
32633;SDS011;19043;51.012;5.648;2023-02-13T05:13:24;72.90;;;46.75;;
32633;SDS011;19043;51.012;5.648;2023-02-13T05:15:49;81.57;;;45.00;;
32633;SDS011;19043;51.012;5.648;2023-02-13T05:18:16;71.28;;;41.88;;
32633;SDS011;19043;51.012;5.648;2023-02-13T05:20:42;71.78;;;45.40;;
32633;SDS011;19043;51.012;5.648;2023-02-13T05:23:09;78.63;;;46.00;;
32633;SDS011;19043;51.012;5.648;2023-02-13T05:25:47;72.97;;;40.25;;
32633;SDS011;19043;51.012;5.648;2023-02-13T05:28:12;73.88;;;41.22;;
32633;SDS011;19043;51.012;5.648;2023-02-13T05:30:57;69.40;;;38.40;;
32633;SDS011;19043;51.012;5.648;2023-02-13T05:33:22;66.28;;;41.55;;
32633;SDS011;19043;51.012;5.648;2023-02-13T05:35:48;62.40;;;38.47;;
32633;SDS011;19043;51.012;5.648;2023-02-13T05:38:13;53.55;;;35.28;;
32633;SDS011;19043;51.012;5.648;2023-02-13T05:40:38;66.13;;;37.85;;
32633;SDS011;19043;51.012;5.648;2023-02-13T05:43:04;72.63;;;39.22;;
32633;SDS011;19043;51.012;5.648;2023-02-13T05:45:29;59.78;;;38.05;;
32633;SDS011;19043;51.012;5.648;2023-02-13T05:47:54;71.53;;;39.60;;
32633;SDS011;19043;51.012;5.648;2023-02-13T05:50:20;58.97;;;38.88;;
32633;SDS011;19043;51.012;5.648;2023-02-13T05:52:45;59.08;;;37.30;;
32633;SDS011;19043;51.012;5.648;2023-02-13T05:55:10;53.72;;;35.60;;
32633;SDS011;19043;51.012;5.648;2023-02-13T05:57:36;62.40;;;37.15;;
32633;SDS011;19043;51.012;5.648;2023-02-13T06:00:02;56.17;;;36.25;;
32633;SDS011;19043;51.012;5.648;2023-02-13T06:02:28;59.20;;;36.65;;
32633;SDS011;19043;51.012;5.648;2023-02-13T06:04:54;55.90;;;35.95;;
32633;SDS011;19043;51.012;5.648;2023-02-13T06:07:19;59.13;;;37.53;;
32633;SDS011;19043;51.012;5.648;2023-02-13T06:09:44;59.08;;;37.42;;
32633;SDS011;19043;51.012;5.648;2023-02-13T06:12:10;53.60;;;36.33;;
32633;SDS011;19043;51.012;5.648;2023-02-13T06:14:35;55.05;;;36.50;;
32633;SDS011;19043;51.012;5.648;2023-02-13T06:17:00;59.50;;;37.55;;
32633;SDS011;19043;51.012;5.648;2023-02-13T06:19:26;61.95;;;40.45;;
32633;SDS011;19043;51.012;5.648;2023-02-13T06:21:51;54.80;;;37.70;;
32633;SDS011;19043;51.012;5.648;2023-02-13T06:24:17;64.70;;;37.92;;
32633;SDS011;19043;51.012;5.648;2023-02-13T06:26:42;67.85;;;38.35;;
32633;SDS011;19043;51.012;5.648;2023-02-13T06:29:07;60.35;;;39.72;;
32633;SDS011;19043;51.012;5.648;2023-02-13T06:31:33;60.03;;;38.25;;
32633;SDS011;19043;51.012;5.648;2023-02-13T06:33:58;60.70;;;38.38;;
32633;SDS011;19043;51.012;5.648;2023-02-13T06:36:24;58.42;;;37.35;;
32633;SDS011;19043;51.012;5.648;2023-02-13T06:38:49;70.32;;;42.42;;
32633;SDS011;19043;51.012;5.648;2023-02-13T06:41:15;67.80;;;40.85;;
32633;SDS011;19043;51.012;5.648;2023-02-13T06:43:40;72.22;;;40.80;;
32633;SDS011;19043;51.012;5.648;2023-02-13T06:46:06;66.80;;;39.67;;
32633;SDS011;19043;51.012;5.648;2023-02-13T06:48:32;71.20;;;40.95;;
32633;SDS011;19043;51.012;5.648;2023-02-13T06:50:58;65.25;;;37.22;;
32633;SDS011;19043;51.012;5.648;2023-02-13T06:53:25;59.78;;;37.85;;
32633;SDS011;19043;51.012;5.648;2023-02-13T06:55:51;63.10;;;38.80;;
32633;SDS011;19043;51.012;5.648;2023-02-13T06:58:17;67.05;;;40.58;;
32633;SDS011;19043;51.012;5.648;2023-02-13T07:00:44;68.85;;;36.67;;
32633;SDS011;19043;51.012;5.648;2023-02-13T07:03:09;68.20;;;38.67;;
32633;SDS011;19043;51.012;5.648;2023-02-13T07:05:34;59.28;;;36.97;;
32633;SDS011;19043;51.012;5.648;2023-02-13T07:08:00;70.05;;;37.63;;
32633;SDS011;19043;51.012;5.648;2023-02-13T07:10:25;64.80;;;38.35;;
32633;SDS011;19043;51.012;5.648;2023-02-13T07:12:51;58.55;;;38.17;;
32633;SDS011;19043;51.012;5.648;2023-02-13T07:15:16;59.15;;;40.13;;
32633;SDS011;19043;51.012;5.648;2023-02-13T07:17:42;56.38;;;38.28;;
32633;SDS011;19043;51.012;5.648;2023-02-13T07:20:07;60.40;;;38.42;;
32633;SDS011;19043;51.012;5.648;2023-02-13T07:22:33;59.40;;;37.05;;
32633;SDS011;19043;51.012;5.648;2023-02-13T07:24:59;63.20;;;37.92;;
32633;SDS011;19043;51.012;5.648;2023-02-13T07:27:25;61.33;;;38.22;;
32633;SDS011;19043;51.012;5.648;2023-02-13T07:29:53;61.28;;;36.35;;
32633;SDS011;19043;51.012;5.648;2023-02-13T07:32:22;60.63;;;37.35;;
32633;SDS011;19043;51.012;5.648;2023-02-13T07:34:47;60.55;;;38.67;;
32633;SDS011;19043;51.012;5.648;2023-02-13T07:37:13;57.38;;;37.85;;
32633;SDS011;19043;51.012;5.648;2023-02-13T07:39:38;59.47;;;36.53;;
32633;SDS011;19043;51.012;5.648;2023-02-13T07:42:04;66.25;;;39.55;;
32633;SDS011;19043;51.012;5.648;2023-02-13T07:44:30;55.47;;;34.72;;
32633;SDS011;19043;51.012;5.648;2023-02-13T07:46:56;63.28;;;36.25;;
32633;SDS011;19043;51.012;5.648;2023-02-13T07:49:22;54.15;;;34.28;;
32633;SDS011;19043;51.012;5.648;2023-02-13T07:51:47;64.22;;;38.47;;
32633;SDS011;19043;51.012;5.648;2023-02-13T07:54:12;62.22;;;37.95;;
32633;SDS011;19043;51.012;5.648;2023-02-13T07:56:38;65.65;;;41.33;;
32633;SDS011;19043;51.012;5.648;2023-02-13T07:59:03;61.90;;;40.65;;
32633;SDS011;19043;51.012;5.648;2023-02-13T08:01:29;57.15;;;40.95;;
32633;SDS011;19043;51.012;5.648;2023-02-13T08:03:54;63.95;;;42.42;;
32633;SDS011;19043;51.012;5.648;2023-02-13T08:06:20;71.32;;;45.20;;
32633;SDS011;19043;51.012;5.648;2023-02-13T08:08:45;75.45;;;45.97;;
32633;SDS011;19043;51.012;5.648;2023-02-13T08:11:20;79.72;;;43.60;;
32633;SDS011;19043;51.012;5.648;2023-02-13T08:14:07;64.28;;;43.28;;
32633;SDS011;19043;51.012;5.648;2023-02-13T08:16:32;68.70;;;45.17;;
32633;SDS011;19043;51.012;5.648;2023-02-13T08:18:58;74.57;;;47.40;;
32633;SDS011;19043;51.012;5.648;2023-02-13T08:21:23;84.47;;;48.90;;
32633;SDS011;19043;51.012;5.648;2023-02-13T08:23:48;78.38;;;46.80;;
32633;SDS011;19043;51.012;5.648;2023-02-13T08:26:15;80.72;;;45.42;;
32633;SDS011;19043;51.012;5.648;2023-02-13T08:28:41;75.22;;;43.92;;
32633;SDS011;19043;51.012;5.648;2023-02-13T08:31:10;75.13;;;42.97;;
32633;SDS011;19043;51.012;5.648;2023-02-13T08:33:36;71.85;;;47.00;;
32633;SDS011;19043;51.012;5.648;2023-02-13T08:36:02;64.70;;;41.65;;
32633;SDS011;19043;51.012;5.648;2023-02-13T08:38:28;68.22;;;41.72;;
32633;SDS011;19043;51.012;5.648;2023-02-13T08:40:55;62.50;;;43.38;;
32633;SDS011;19043;51.012;5.648;2023-02-13T08:43:21;65.32;;;43.97;;
32633;SDS011;19043;51.012;5.648;2023-02-13T08:45:46;77.35;;;44.30;;
32633;SDS011;19043;51.012;5.648;2023-02-13T08:48:11;78.28;;;48.63;;
32633;SDS011;19043;51.012;5.648;2023-02-13T08:50:37;77.10;;;49.15;;
32633;SDS011;19043;51.012;5.648;2023-02-13T08:53:02;88.65;;;51.47;;
32633;SDS011;19043;51.012;5.648;2023-02-13T08:55:27;83.32;;;53.90;;
32633;SDS011;19043;51.012;5.648;2023-02-13T08:57:57;87.28;;;52.92;;
32633;SDS011;19043;51.012;5.648;2023-02-13T09:00:23;74.35;;;51.63;;
32633;SDS011;19043;51.012;5.648;2023-02-13T09:02:49;82.18;;;49.90;;
32633;SDS011;19043;51.012;5.648;2023-02-13T09:05:14;83.82;;;53.42;;
32633;SDS011;19043;51.012;5.648;2023-02-13T09:07:40;90.53;;;54.20;;
32633;SDS011;19043;51.012;5.648;2023-02-13T09:10:05;73.25;;;51.25;;
32633;SDS011;19043;51.012;5.648;2023-02-13T09:12:31;98.45;;;55.42;;
32633;SDS011;19043;51.012;5.648;2023-02-13T09:14:56;79.53;;;53.75;;
32633;SDS011;19043;51.012;5.648;2023-02-13T09:17:22;89.05;;;55.03;;
32633;SDS011;19043;51.012;5.648;2023-02-13T09:19:47;89.63;;;53.45;;
32633;SDS011;19043;51.012;5.648;2023-02-13T09:22:12;81.72;;;51.95;;
32633;SDS011;19043;51.012;5.648;2023-02-13T09:24:40;80.72;;;53.13;;
32633;SDS011;19043;51.012;5.648;2023-02-13T09:27:06;81.82;;;53.95;;
32633;SDS011;19043;51.012;5.648;2023-02-13T09:29:32;87.60;;;54.50;;
32633;SDS011;19043;51.012;5.648;2023-02-13T09:31:58;87.55;;;53.08;;
32633;SDS011;19043;51.012;5.648;2023-02-13T09:34:23;83.72;;;50.67;;
32633;SDS011;19043;51.012;5.648;2023-02-13T09:36:52;74.88;;;48.00;;
32633;SDS011;19043;51.012;5.648;2023-02-13T09:39:18;69.88;;;49.00;;
32633;SDS011;19043;51.012;5.648;2023-02-13T09:41:43;69.35;;;48.30;;
32633;SDS011;19043;51.012;5.648;2023-02-13T09:44:12;77.10;;;47.63;;
32633;SDS011;19043;51.012;5.648;2023-02-13T09:46:58;80.35;;;49.95;;
32633;SDS011;19043;51.012;5.648;2023-02-13T09:49:45;72.72;;;49.65;;
32633;SDS011;19043;51.012;5.648;2023-02-13T09:52:14;68.40;;;48.85;;
32633;SDS011;19043;51.012;5.648;2023-02-13T09:54:40;76.93;;;51.25;;
32633;SDS011;19043;51.012;5.648;2023-02-13T09:57:07;75.55;;;48.00;;
32633;SDS011;19043;51.012;5.648;2023-02-13T10:02:23;76.45;;;45.50;;
32633;SDS011;19043;51.012;5.648;2023-02-13T10:15:36;47.85;;;31.77;;
32633;SDS011;19043;51.012;5.648;2023-02-13T10:18:09;39.58;;;29.33;;
32633;SDS011;19043;51.012;5.648;2023-02-13T10:20:41;42.70;;;30.85;;
32633;SDS011;19043;51.012;5.648;2023-02-13T10:25:57;39.10;;;26.02;;
32633;SDS011;19043;51.012;5.648;2023-02-13T10:28:28;40.90;;;26.27;;
32633;SDS011;19043;51.012;5.648;2023-02-13T10:31:07;36.10;;;26.20;;
32633;SDS011;19043;51.012;5.648;2023-02-13T10:33:40;35.75;;;27.52;;
32633;SDS011;19043;51.012;5.648;2023-02-13T10:36:17;31.23;;;25.63;;
32633;SDS011;19043;51.012;5.648;2023-02-13T10:38:55;39.95;;;27.67;;
32633;SDS011;19043;51.012;5.648;2023-02-13T10:41:52;27.52;;;21.45;;
32633;SDS011;19043;51.012;5.648;2023-02-13T10:49:45;31.27;;;19.85;;
32633;SDS011;19043;51.012;5.648;2023-02-13T10:52:49;27.17;;;20.05;;
32633;SDS011;19043;51.012;5.648;2023-02-13T11:00:35;29.45;;;19.80;;
32633;SDS011;19043;51.012;5.648;2023-02-13T11:03:03;26.92;;;19.30;;
32633;SDS011;19043;51.012;5.648;2023-02-13T11:05:37;28.67;;;20.50;;
32633;SDS011;19043;51.012;5.648;2023-02-13T11:10:54;19.35;;;15.77;;
32633;SDS011;19043;51.012;5.648;2023-02-13T11:13:21;24.10;;;16.27;;
32633;SDS011;19043;51.012;5.648;2023-02-13T11:16:07;21.92;;;15.90;;
32633;SDS011;19043;51.012;5.648;2023-02-13T11:18:38;20.52;;;15.10;;
32633;SDS011;19043;51.012;5.648;2023-02-13T11:23:37;19.85;;;15.30;;
32633;SDS011;19043;51.012;5.648;2023-02-13T11:26:06;22.02;;;14.90;;
32633;SDS011;19043;51.012;5.648;2023-02-13T11:28:38;27.10;;;14.82;;
32633;SDS011;19043;51.012;5.648;2023-02-13T11:31:10;21.73;;;14.50;;
32633;SDS011;19043;51.012;5.648;2023-02-13T11:33:44;17.83;;;14.65;;
32633;SDS011;19043;51.012;5.648;2023-02-13T11:36:22;21.00;;;14.30;;
32633;SDS011;19043;51.012;5.648;2023-02-13T11:39:00;18.30;;;13.02;;
32633;SDS011;19043;51.012;5.648;2023-02-13T11:41:27;18.38;;;13.52;;
32633;SDS011;19043;51.012;5.648;2023-02-13T11:43:58;18.75;;;14.10;;
32633;SDS011;19043;51.012;5.648;2023-02-13T11:46:29;18.27;;;13.35;;
32633;SDS011;19043;51.012;5.648;2023-02-13T11:49:12;16.52;;;12.88;;
32633;SDS011;19043;51.012;5.648;2023-02-13T11:56:50;19.98;;;14.38;;
32633;SDS011;19043;51.012;5.648;2023-02-13T11:59:17;17.10;;;11.60;;
32633;SDS011;19043;51.012;5.648;2023-02-13T12:01:46;19.25;;;12.32;;
32633;SDS011;19043;51.012;5.648;2023-02-13T12:04:17;16.30;;;10.50;;
32633;SDS011;19043;51.012;5.648;2023-02-13T12:07:28;13.80;;;10.93;;
32633;SDS011;19043;51.012;5.648;2023-02-13T12:12:31;15.43;;;10.98;;
32633;SDS011;19043;51.012;5.648;2023-02-13T12:15:01;14.77;;;11.70;;
32633;SDS011;19043;51.012;5.648;2023-02-13T12:17:29;15.45;;;10.45;;
32633;SDS011;19043;51.012;5.648;2023-02-13T12:19:55;14.07;;;10.15;;
32633;SDS011;19043;51.012;5.648;2023-02-13T12:27:39;10.98;;;9.10;;
32633;SDS011;19043;51.012;5.648;2023-02-13T12:55:01;10.85;;;8.70;;
32633;SDS011;19043;51.012;5.648;2023-02-13T13:00:22;9.07;;;7.32;;
32633;SDS011;19043;51.012;5.648;2023-02-13T13:03:14;12.25;;;7.25;;
32633;SDS011;19043;51.012;5.648;2023-02-13T13:14:17;6.57;;;4.53;;
32633;SDS011;19043;51.012;5.648;2023-02-13T13:17:11;6.72;;;5.32;;
32633;SDS011;19043;51.012;5.648;2023-02-13T13:22:55;8.98;;;4.32;;
32633;SDS011;19043;51.012;5.648;2023-02-13T13:28:57;9.88;;;5.80;;
32633;SDS011;19043;51.012;5.648;2023-02-13T13:31:24;7.57;;;5.50;;
32633;SDS011;19043;51.012;5.648;2023-02-13T13:33:51;8.88;;;6.32;;
32633;SDS011;19043;51.012;5.648;2023-02-13T13:39:23;8.15;;;6.82;;
32633;SDS011;19043;51.012;5.648;2023-02-13T13:42:15;7.70;;;6.85;;
32633;SDS011;19043;51.012;5.648;2023-02-13T13:47:37;6.50;;;5.28;;
32633;SDS011;19043;51.012;5.648;2023-02-13T14:11:52;10.93;;;9.25;;
32633;SDS011;19043;51.012;5.648;2023-02-13T14:16:58;9.25;;;8.25;;
32633;SDS011;19043;51.012;5.648;2023-02-13T14:24:51;12.63;;;10.13;;
32633;SDS011;19043;51.012;5.648;2023-02-13T14:27:27;14.93;;;9.55;;
32633;SDS011;19043;51.012;5.648;2023-02-13T14:29:54;13.45;;;9.80;;
32633;SDS011;19043;51.012;5.648;2023-02-13T14:32:34;10.73;;;9.43;;
32633;SDS011;19043;51.012;5.648;2023-02-13T14:35:02;11.52;;;9.00;;
32633;SDS011;19043;51.012;5.648;2023-02-13T14:37:46;10.90;;;8.00;;
32633;SDS011;19043;51.012;5.648;2023-02-13T14:42:45;11.35;;;9.55;;
32633;SDS011;19043;51.012;5.648;2023-02-13T14:45:13;17.38;;;10.32;;
32633;SDS011;19043;51.012;5.648;2023-02-13T14:47:47;11.55;;;9.27;;
32633;SDS011;19043;51.012;5.648;2023-02-13T14:50:22;13.07;;;9.80;;
32633;SDS011;19043;51.012;5.648;2023-02-13T14:52:49;15.13;;;9.38;;
32633;SDS011;19043;51.012;5.648;2023-02-13T14:58:42;11.55;;;9.30;;
32633;SDS011;19043;51.012;5.648;2023-02-13T15:01:34;11.83;;;8.87;;
32633;SDS011;19043;51.012;5.648;2023-02-13T15:03:57;10.70;;;8.57;;
32633;SDS011;19043;51.012;5.648;2023-02-13T15:06:26;14.75;;;11.55;;
32633;SDS011;19043;51.012;5.648;2023-02-13T15:08:53;10.43;;;9.07;;
32633;SDS011;19043;51.012;5.648;2023-02-13T15:11:35;12.40;;;9.73;;
32633;SDS011;19043;51.012;5.648;2023-02-13T15:14:16;13.45;;;9.02;;
32633;SDS011;19043;51.012;5.648;2023-02-13T15:16:50;14.02;;;8.50;;
32633;SDS011;19043;51.012;5.648;2023-02-13T15:19:18;13.68;;;9.00;;
32633;SDS011;19043;51.012;5.648;2023-02-13T15:21:46;10.57;;;8.23;;
32633;SDS011;19043;51.012;5.648;2023-02-13T15:24:16;13.80;;;8.68;;
32633;SDS011;19043;51.012;5.648;2023-02-13T15:26:48;11.07;;;8.07;;
32633;SDS011;19043;51.012;5.648;2023-02-13T15:29:16;12.90;;;8.85;;
32633;SDS011;19043;51.012;5.648;2023-02-13T15:31:42;10.50;;;8.45;;
32633;SDS011;19043;51.012;5.648;2023-02-13T15:34:21;13.30;;;8.55;;
32633;SDS011;19043;51.012;5.648;2023-02-13T15:36:48;10.73;;;8.55;;
32633;SDS011;19043;51.012;5.648;2023-02-13T15:39:15;14.40;;;9.00;;
32633;SDS011;19043;51.012;5.648;2023-02-13T15:41:46;11.35;;;8.45;;
32633;SDS011;19043;51.012;5.648;2023-02-13T15:44:17;11.50;;;9.13;;
32633;SDS011;19043;51.012;5.648;2023-02-13T15:46:47;12.63;;;8.90;;
32633;SDS011;19043;51.012;5.648;2023-02-13T15:49:16;16.75;;;9.30;;
32633;SDS011;19043;51.012;5.648;2023-02-13T15:51:43;11.07;;;9.02;;
32633;SDS011;19043;51.012;5.648;2023-02-13T15:56:47;11.50;;;9.82;;
32633;SDS011;19043;51.012;5.648;2023-02-13T15:59:13;11.43;;;10.25;;
32633;SDS011;19043;51.012;5.648;2023-02-13T16:01:40;14.27;;;9.98;;
32633;SDS011;19043;51.012;5.648;2023-02-13T16:04:11;11.57;;;9.63;;
32633;SDS011;19043;51.012;5.648;2023-02-13T16:06:42;11.35;;;8.95;;
32633;SDS011;19043;51.012;5.648;2023-02-13T16:09:21;10.73;;;8.70;;
32633;SDS011;19043;51.012;5.648;2023-02-13T16:11:53;12.65;;;9.48;;
32633;SDS011;19043;51.012;5.648;2023-02-13T16:14:23;14.52;;;10.27;;
32633;SDS011;19043;51.012;5.648;2023-02-13T16:22:26;12.38;;;10.05;;
32633;SDS011;19043;51.012;5.648;2023-02-13T16:27:35;13.52;;;10.52;;
32633;SDS011;19043;51.012;5.648;2023-02-13T16:30:05;13.55;;;10.07;;
32633;SDS011;19043;51.012;5.648;2023-02-13T16:32:33;16.40;;;9.65;;
32633;SDS011;19043;51.012;5.648;2023-02-13T16:37:52;13.15;;;10.05;;
32633;SDS011;19043;51.012;5.648;2023-02-13T16:42:51;12.80;;;9.90;;
32633;SDS011;19043;51.012;5.648;2023-02-13T16:45:21;10.95;;;9.27;;
32633;SDS011;19043;51.012;5.648;2023-02-13T16:47:47;11.70;;;9.48;;
32633;SDS011;19043;51.012;5.648;2023-02-13T16:50:15;11.50;;;9.15;;
32633;SDS011;19043;51.012;5.648;2023-02-13T16:52:41;14.45;;;10.75;;
32633;SDS011;19043;51.012;5.648;2023-02-13T16:55:12;13.35;;;10.32;;
32633;SDS011;19043;51.012;5.648;2023-02-13T16:57:38;13.43;;;9.45;;
32633;SDS011;19043;51.012;5.648;2023-02-13T17:02:40;17.27;;;9.10;;
32633;SDS011;19043;51.012;5.648;2023-02-13T17:12:26;13.57;;;8.68;;
32633;SDS011;19043;51.012;5.648;2023-02-13T17:14:52;14.07;;;9.75;;
32633;SDS011;19043;51.012;5.648;2023-02-13T17:17:20;15.38;;;10.15;;
32633;SDS011;19043;51.012;5.648;2023-02-13T17:19:46;14.48;;;10.07;;
32633;SDS011;19043;51.012;5.648;2023-02-13T17:24:50;15.73;;;11.40;;
32633;SDS011;19043;51.012;5.648;2023-02-13T17:27:15;18.27;;;11.68;;
32633;SDS011;19043;51.012;5.648;2023-02-13T17:29:41;14.85;;;10.43;;
32633;SDS011;19043;51.012;5.648;2023-02-13T17:32:07;15.18;;;11.40;;
32633;SDS011;19043;51.012;5.648;2023-02-13T17:34:34;14.63;;;10.30;;
32633;SDS011;19043;51.012;5.648;2023-02-13T17:36:59;15.45;;;10.18;;
32633;SDS011;19043;51.012;5.648;2023-02-13T17:39:24;13.50;;;11.05;;
32633;SDS011;19043;51.012;5.648;2023-02-13T17:41:50;16.45;;;11.35;;
32633;SDS011;19043;51.012;5.648;2023-02-13T17:44:15;18.10;;;10.88;;
32633;SDS011;19043;51.012;5.648;2023-02-13T17:46:42;14.20;;;10.52;;
32633;SDS011;19043;51.012;5.648;2023-02-13T17:49:07;15.23;;;11.70;;
32633;SDS011;19043;51.012;5.648;2023-02-13T17:51:32;19.25;;;12.35;;
32633;SDS011;19043;51.012;5.648;2023-02-13T17:53:58;17.05;;;11.63;;
32633;SDS011;19043;51.012;5.648;2023-02-13T17:56:23;19.02;;;12.80;;
32633;SDS011;19043;51.012;5.648;2023-02-13T17:58:49;18.17;;;13.55;;